Melvin Village, New Hampshire
Current Conditions -  °F | °C
As of 3:55 PM on Tuesday 27 Jan 2015 (Local Time) from KLCI Reporting Station
Overcast Overcast  
Wind Chill:   Ceiling: 2800
Heat Index: 19°   Visibility: 4mi
Dew Point: 12°   Wind: 12mph
Humidity: 74%   Direction: 340°NNW
Pressure: 29.55"   Gusts: NA
Location:  43.69°N, 71.3°W
Report Text: KLCI 272055Z AUTO 34010KT 4SM BKN028 OVC035 M07/M11 A2955 RMK AO1 52003
Loading
Personal Weather Stations






























Interactive Weather Map New forecast layout! Learn more

10-Day Weather Forecast

Advertisements
Track Severe Weather on mobile